sensor_id;sensor_type;location;lat;lon;timestamp;P1;durP1;ratioP1;P2;durP2;ratioP2
7523;SDS011;3803;51.666;7.630;2023-03-14T00:00:17;5.37;;;2.20;;
7523;SDS011;3803;51.666;7.630;2023-03-14T00:00:38;5.77;;;2.23;;
7523;SDS011;3803;51.666;7.630;2023-03-14T00:00:58;5.90;;;2.30;;
7523;SDS011;3803;51.666;7.630;2023-03-14T00:01:19;5.07;;;2.30;;
7523;SDS011;3803;51.666;7.630;2023-03-14T00:01:45;4.15;;;2.30;;
7523;SDS011;3803;51.666;7.630;2023-03-14T00:02:07;4.80;;;2.60;;
7523;SDS011;3803;51.666;7.630;2023-03-14T00:02:27;5.80;;;2.80;;
7523;SDS011;3803;51.666;7.630;2023-03-14T00:02:52;6.45;;;2.65;;
7523;SDS011;3803;51.666;7.630;2023-03-14T00:03:13;5.30;;;2.50;;
7523;SDS011;3803;51.666;7.630;2023-03-14T00:03:34;4.72;;;2.40;;
7523;SDS011;3803;51.666;7.630;2023-03-14T00:03:54;3.70;;;2.38;;
7523;SDS011;3803;51.666;7.630;2023-03-14T00:04:15;4.03;;;2.60;;
7523;SDS011;3803;51.666;7.630;2023-03-14T00:04:36;4.70;;;2.40;;
7523;SDS011;3803;51.666;7.630;2023-03-14T00:04:57;4.93;;;2.50;;
7523;SDS011;3803;51.666;7.630;2023-03-14T00:05:17;4.25;;;2.20;;
7523;SDS011;3803;51.666;7.630;2023-03-14T00:05:38;3.88;;;2.20;;
7523;SDS011;3803;51.666;7.630;2023-03-14T00:06:01;3.57;;;2.10;;
7523;SDS011;3803;51.666;7.630;2023-03-14T00:06:23;3.63;;;2.38;;
7523;SDS011;3803;51.666;7.630;2023-03-14T00:06:44;3.83;;;2.43;;
7523;SDS011;3803;51.666;7.630;2023-03-14T00:07:07;4.53;;;2.40;;
7523;SDS011;3803;51.666;7.630;2023-03-14T00:07:27;4.88;;;2.30;;
7523;SDS011;3803;51.666;7.630;2023-03-14T00:07:52;5.07;;;2.40;;
7523;SDS011;3803;51.666;7.630;2023-03-14T00:08:12;3.55;;;2.40;;
7523;SDS011;3803;51.666;7.630;2023-03-14T00:08:33;4.38;;;2.60;;
7523;SDS011;3803;51.666;7.630;2023-03-14T00:08:54;4.35;;;2.58;;
7523;SDS011;3803;51.666;7.630;2023-03-14T00:09:16;5.05;;;2.67;;
7523;SDS011;3803;51.666;7.630;2023-03-14T00:10:45;6.53;;;2.63;;
7523;SDS011;3803;51.666;7.630;2023-03-14T00:11:07;5.78;;;2.70;;
7523;SDS011;3803;51.666;7.630;2023-03-14T00:11:29;7.15;;;2.97;;
7523;SDS011;3803;51.666;7.630;2023-03-14T00:11:50;6.20;;;2.92;;
7523;SDS011;3803;51.666;7.630;2023-03-14T00:12:10;5.88;;;2.80;;
7523;SDS011;3803;51.666;7.630;2023-03-14T00:12:31;7.03;;;2.53;;
7523;SDS011;3803;51.666;7.630;2023-03-14T00:12:52;7.78;;;2.53;;
7523;SDS011;3803;51.666;7.630;2023-03-14T00:13:12;7.28;;;2.40;;
7523;SDS011;3803;51.666;7.630;2023-03-14T00:13:33;6.00;;;2.30;;
7523;SDS011;3803;51.666;7.630;2023-03-14T00:13:54;7.00;;;2.40;;
7523;SDS011;3803;51.666;7.630;2023-03-14T00:14:15;6.85;;;2.50;;
7523;SDS011;3803;51.666;7.630;2023-03-14T00:14:37;6.60;;;2.60;;
7523;SDS011;3803;51.666;7.630;2023-03-14T00:14:57;4.13;;;2.20;;
7523;SDS011;3803;51.666;7.630;2023-03-14T00:15:20;4.10;;;2.30;;
7523;SDS011;3803;51.666;7.630;2023-03-14T00:15:40;3.60;;;2.17;;
7523;SDS011;3803;51.666;7.630;2023-03-14T00:16:26;6.30;;;2.20;;
7523;SDS011;3803;51.666;7.630;2023-03-14T00:16:47;5.60;;;2.25;;
7523;SDS011;3803;51.666;7.630;2023-03-14T00:17:07;3.55;;;2.10;;
7523;SDS011;3803;51.666;7.630;2023-03-14T00:17:28;2.80;;;2.10;;
7523;SDS011;3803;51.666;7.630;2023-03-14T00:17:50;3.88;;;2.00;;
7523;SDS011;3803;51.666;7.630;2023-03-14T00:18:10;4.65;;;2.00;;
7523;SDS011;3803;51.666;7.630;2023-03-14T00:18:31;4.70;;;2.10;;
7523;SDS011;3803;51.666;7.630;2023-03-14T00:18:52;4.00;;;2.30;;
7523;SDS011;3803;51.666;7.630;2023-03-14T00:19:13;3.37;;;2.10;;
7523;SDS011;3803;51.666;7.630;2023-03-14T00:19:34;3.65;;;1.90;;
7523;SDS011;3803;51.666;7.630;2023-03-14T00:19:55;3.90;;;1.80;;
7523;SDS011;3803;51.666;7.630;2023-03-14T00:20:15;4.60;;;2.15;;
7523;SDS011;3803;51.666;7.630;2023-03-14T00:20:42;4.60;;;2.50;;
7523;SDS011;3803;51.666;7.630;2023-03-14T00:21:03;4.78;;;2.55;;
7523;SDS011;3803;51.666;7.630;2023-03-14T00:21:25;4.55;;;2.35;;
7523;SDS011;3803;51.666;7.630;2023-03-14T00:21:47;4.73;;;2.23;;
7523;SDS011;3803;51.666;7.630;2023-03-14T00:22:07;5.82;;;2.38;;
7523;SDS011;3803;51.666;7.630;2023-03-14T00:22:28;5.95;;;2.35;;
7523;SDS011;3803;51.666;7.630;2023-03-14T00:22:49;5.47;;;2.47;;
7523;SDS011;3803;51.666;7.630;2023-03-14T00:23:09;5.47;;;2.30;;
7523;SDS011;3803;51.666;7.630;2023-03-14T00:23:30;4.70;;;2.30;;
7523;SDS011;3803;51.666;7.630;2023-03-14T00:23:52;4.10;;;2.20;;
7523;SDS011;3803;51.666;7.630;2023-03-14T00:24:13;3.38;;;2.10;;
7523;SDS011;3803;51.666;7.630;2023-03-14T00:24:33;6.00;;;2.20;;
7523;SDS011;3803;51.666;7.630;2023-03-14T00:24:54;6.50;;;2.30;;
7523;SDS011;3803;51.666;7.630;2023-03-14T00:25:15;6.07;;;2.25;;
7523;SDS011;3803;51.666;7.630;2023-03-14T00:25:35;4.43;;;2.10;;
7523;SDS011;3803;51.666;7.630;2023-03-14T00:26:03;4.38;;;2.20;;
7523;SDS011;3803;51.666;7.630;2023-03-14T00:26:28;4.70;;;2.30;;
7523;SDS011;3803;51.666;7.630;2023-03-14T00:26:49;3.87;;;2.20;;
7523;SDS011;3803;51.666;7.630;2023-03-14T00:27:10;4.13;;;2.17;;
7523;SDS011;3803;51.666;7.630;2023-03-14T00:27:30;6.47;;;2.20;;
7523;SDS011;3803;51.666;7.630;2023-03-14T00:27:51;7.32;;;2.20;;
7523;SDS011;3803;51.666;7.630;2023-03-14T00:28:12;6.05;;;2.05;;
7523;SDS011;3803;51.666;7.630;2023-03-14T00:28:34;4.88;;;2.00;;
7523;SDS011;3803;51.666;7.630;2023-03-14T00:28:55;5.30;;;2.10;;
7523;SDS011;3803;51.666;7.630;2023-03-14T00:29:16;6.00;;;2.30;;
7523;SDS011;3803;51.666;7.630;2023-03-14T00:29:39;4.28;;;2.15;;
7523;SDS011;3803;51.666;7.630;2023-03-14T00:30:00;3.23;;;1.90;;
7523;SDS011;3803;51.666;7.630;2023-03-14T00:30:21;2.97;;;2.03;;
7523;SDS011;3803;51.666;7.630;2023-03-14T00:31:27;4.65;;;2.42;;
7523;SDS011;3803;51.666;7.630;2023-03-14T00:31:48;5.50;;;2.50;;
7523;SDS011;3803;51.666;7.630;2023-03-14T00:32:16;6.90;;;2.63;;
7523;SDS011;3803;51.666;7.630;2023-03-14T00:32:37;6.07;;;2.33;;
7523;SDS011;3803;51.666;7.630;2023-03-14T00:32:58;5.05;;;2.33;;
7523;SDS011;3803;51.666;7.630;2023-03-14T00:33:18;4.93;;;2.37;;
7523;SDS011;3803;51.666;7.630;2023-03-14T00:33:40;5.40;;;2.20;;
7523;SDS011;3803;51.666;7.630;2023-03-14T00:34:01;6.82;;;2.40;;
7523;SDS011;3803;51.666;7.630;2023-03-14T00:34:22;5.57;;;2.08;;
7523;SDS011;3803;51.666;7.630;2023-03-14T00:34:42;5.05;;;2.08;;
7523;SDS011;3803;51.666;7.630;2023-03-14T00:35:03;4.40;;;2.17;;
7523;SDS011;3803;51.666;7.630;2023-03-14T00:35:24;5.88;;;2.50;;
7523;SDS011;3803;51.666;7.630;2023-03-14T00:35:56;4.53;;;2.30;;
7523;SDS011;3803;51.666;7.630;2023-03-14T00:36:19;3.83;;;2.22;;
7523;SDS011;3803;51.666;7.630;2023-03-14T00:36:44;4.05;;;2.30;;
7523;SDS011;3803;51.666;7.630;2023-03-14T00:37:06;5.07;;;2.30;;
7523;SDS011;3803;51.666;7.630;2023-03-14T00:37:27;4.60;;;2.10;;
7523;SDS011;3803;51.666;7.630;2023-03-14T00:37:48;4.47;;;2.03;;
7523;SDS011;3803;51.666;7.630;2023-03-14T00:38:08;3.35;;;1.90;;
7523;SDS011;3803;51.666;7.630;2023-03-14T00:38:30;2.92;;;1.73;;
7523;SDS011;3803;51.666;7.630;2023-03-14T00:38:51;3.33;;;1.90;;
7523;SDS011;3803;51.666;7.630;2023-03-14T00:39:12;4.90;;;2.10;;
7523;SDS011;3803;51.666;7.630;2023-03-14T00:39:33;6.05;;;2.45;;
7523;SDS011;3803;51.666;7.630;2023-03-14T00:39:53;7.00;;;2.57;;
7523;SDS011;3803;51.666;7.630;2023-03-14T00:40:14;5.35;;;2.47;;
7523;SDS011;3803;51.666;7.630;2023-03-14T00:40:38;5.72;;;2.30;;
7523;SDS011;3803;51.666;7.630;2023-03-14T00:40:59;5.03;;;2.13;;
7523;SDS011;3803;51.666;7.630;2023-03-14T00:41:24;5.15;;;2.20;;
7523;SDS011;3803;51.666;7.630;2023-03-14T00:41:44;6.05;;;2.30;;
7523;SDS011;3803;51.666;7.630;2023-03-14T00:42:05;6.73;;;2.37;;
7523;SDS011;3803;51.666;7.630;2023-03-14T00:42:26;5.88;;;2.25;;
7523;SDS011;3803;51.666;7.630;2023-03-14T00:42:46;4.97;;;2.50;;
7523;SDS011;3803;51.666;7.630;2023-03-14T00:43:07;4.13;;;2.40;;
7523;SDS011;3803;51.666;7.630;2023-03-14T00:43:28;4.38;;;2.50;;
7523;SDS011;3803;51.666;7.630;2023-03-14T00:43:49;4.18;;;2.20;;
7523;SDS011;3803;51.666;7.630;2023-03-14T00:44:10;4.97;;;2.10;;
7523;SDS011;3803;51.666;7.630;2023-03-14T00:44:31;5.32;;;1.80;;
7523;SDS011;3803;51.666;7.630;2023-03-14T00:45:01;5.50;;;1.70;;
7523;SDS011;3803;51.666;7.630;2023-03-14T00:45:21;5.70;;;2.03;;
7523;SDS011;3803;51.666;7.630;2023-03-14T00:45:42;5.30;;;2.15;;
7523;SDS011;3803;51.666;7.630;2023-03-14T00:46:02;4.30;;;2.20;;
7523;SDS011;3803;51.666;7.630;2023-03-14T00:46:23;4.80;;;2.20;;
7523;SDS011;3803;51.666;7.630;2023-03-14T00:46:44;6.07;;;2.30;;
7523;SDS011;3803;51.666;7.630;2023-03-14T00:47:49;3.35;;;2.15;;
7523;SDS011;3803;51.666;7.630;2023-03-14T00:48:10;2.37;;;2.17;;
7523;SDS011;3803;51.666;7.630;2023-03-14T00:48:31;3.00;;;2.20;;
7523;SDS011;3803;51.666;7.630;2023-03-14T00:48:52;4.05;;;2.22;;
7523;SDS011;3803;51.666;7.630;2023-03-14T00:49:12;4.32;;;2.10;;
7523;SDS011;3803;51.666;7.630;2023-03-14T00:49:33;4.00;;;2.00;;
7523;SDS011;3803;51.666;7.630;2023-03-14T00:49:54;3.73;;;2.03;;
7523;SDS011;3803;51.666;7.630;2023-03-14T00:50:15;4.50;;;2.10;;
7523;SDS011;3803;51.666;7.630;2023-03-14T00:50:36;4.78;;;2.05;;
7523;SDS011;3803;51.666;7.630;2023-03-14T00:50:56;3.85;;;1.90;;
7523;SDS011;3803;51.666;7.630;2023-03-14T00:51:17;3.00;;;1.90;;
7523;SDS011;3803;51.666;7.630;2023-03-14T00:51:37;2.50;;;1.90;;
7523;SDS011;3803;51.666;7.630;2023-03-14T00:51:58;3.08;;;1.98;;
7523;SDS011;3803;51.666;7.630;2023-03-14T00:52:19;3.03;;;1.90;;
7523;SDS011;3803;51.666;7.630;2023-03-14T00:52:40;3.40;;;1.90;;
7523;SDS011;3803;51.666;7.630;2023-03-14T00:53:00;4.43;;;2.17;;
7523;SDS011;3803;51.666;7.630;2023-03-14T00:53:21;5.03;;;2.38;;
7523;SDS011;3803;51.666;7.630;2023-03-14T00:53:42;5.07;;;2.22;;
7523;SDS011;3803;51.666;7.630;2023-03-14T00:54:03;3.78;;;2.10;;
7523;SDS011;3803;51.666;7.630;2023-03-14T00:54:24;4.72;;;2.28;;
7523;SDS011;3803;51.666;7.630;2023-03-14T00:54:44;4.93;;;2.37;;
7523;SDS011;3803;51.666;7.630;2023-03-14T00:55:05;5.82;;;2.17;;
7523;SDS011;3803;51.666;7.630;2023-03-14T00:55:26;5.35;;;2.10;;
7523;SDS011;3803;51.666;7.630;2023-03-14T00:55:47;5.32;;;2.20;;
7523;SDS011;3803;51.666;7.630;2023-03-14T00:56:10;4.90;;;2.10;;
7523;SDS011;3803;51.666;7.630;2023-03-14T00:56:32;5.47;;;2.10;;
7523;SDS011;3803;51.666;7.630;2023-03-14T00:56:52;5.97;;;2.22;;
7523;SDS011;3803;51.666;7.630;2023-03-14T00:57:13;5.40;;;2.30;;
7523;SDS011;3803;51.666;7.630;2023-03-14T00:57:34;4.15;;;2.10;;
7523;SDS011;3803;51.666;7.630;2023-03-14T00:57:54;3.63;;;2.13;;
7523;SDS011;3803;51.666;7.630;2023-03-14T00:58:15;3.60;;;2.00;;
7523;SDS011;3803;51.666;7.630;2023-03-14T00:58:37;4.75;;;2.00;;
7523;SDS011;3803;51.666;7.630;2023-03-14T00:58:58;4.13;;;1.73;;
7523;SDS011;3803;51.666;7.630;2023-03-14T00:59:19;3.95;;;1.70;;
7523;SDS011;3803;51.666;7.630;2023-03-14T00:59:40;4.00;;;1.80;;
7523;SDS011;3803;51.666;7.630;2023-03-14T01:00:00;5.32;;;2.00;;
7523;SDS011;3803;51.666;7.630;2023-03-14T01:00:21;7.55;;;2.33;;
7523;SDS011;3803;51.666;7.630;2023-03-14T01:00:42;8.82;;;2.90;;
7523;SDS011;3803;51.666;7.630;2023-03-14T01:01:10;7.47;;;2.70;;
7523;SDS011;3803;51.666;7.630;2023-03-14T01:01:34;4.10;;;2.10;;
7523;SDS011;3803;51.666;7.630;2023-03-14T01:01:55;4.93;;;2.10;;
7523;SDS011;3803;51.666;7.630;2023-03-14T01:02:16;6.43;;;2.70;;
7523;SDS011;3803;51.666;7.630;2023-03-14T01:02:37;5.72;;;2.60;;
7523;SDS011;3803;51.666;7.630;2023-03-14T01:02:57;5.30;;;2.80;;
7523;SDS011;3803;51.666;7.630;2023-03-14T01:03:18;4.20;;;2.50;;
7523;SDS011;3803;51.666;7.630;2023-03-14T01:03:39;4.13;;;2.50;;
7523;SDS011;3803;51.666;7.630;2023-03-14T01:03:59;2.80;;;2.10;;
7523;SDS011;3803;51.666;7.630;2023-03-14T01:04:20;2.70;;;2.00;;
7523;SDS011;3803;51.666;7.630;2023-03-14T01:04:41;2.45;;;1.88;;
7523;SDS011;3803;51.666;7.630;2023-03-14T01:05:03;3.03;;;1.88;;
7523;SDS011;3803;51.666;7.630;2023-03-14T01:05:24;3.65;;;1.80;;
7523;SDS011;3803;51.666;7.630;2023-03-14T01:05:45;4.97;;;2.05;;
7523;SDS011;3803;51.666;7.630;2023-03-14T01:06:08;5.40;;;2.10;;
7523;SDS011;3803;51.666;7.630;2023-03-14T01:06:29;5.22;;;2.33;;
7523;SDS011;3803;51.666;7.630;2023-03-14T01:06:50;3.92;;;2.28;;
7523;SDS011;3803;51.666;7.630;2023-03-14T01:07:10;3.97;;;2.15;;
7523;SDS011;3803;51.666;7.630;2023-03-14T01:07:33;3.53;;;2.13;;
7523;SDS011;3803;51.666;7.630;2023-03-14T01:07:54;4.28;;;1.70;;
7523;SDS011;3803;51.666;7.630;2023-03-14T01:08:15;3.60;;;1.70;;
7523;SDS011;3803;51.666;7.630;2023-03-14T01:08:36;5.00;;;1.90;;
7523;SDS011;3803;51.666;7.630;2023-03-14T01:08:56;4.10;;;2.10;;
7523;SDS011;3803;51.666;7.630;2023-03-14T01:09:20;3.90;;;2.10;;
7523;SDS011;3803;51.666;7.630;2023-03-14T01:09:42;3.50;;;2.00;;
7523;SDS011;3803;51.666;7.630;2023-03-14T01:10:03;3.67;;;2.00;;
7523;SDS011;3803;51.666;7.630;2023-03-14T01:10:26;4.00;;;2.13;;
7523;SDS011;3803;51.666;7.630;2023-03-14T01:10:46;6.60;;;2.33;;
7523;SDS011;3803;51.666;7.630;2023-03-14T01:11:08;6.30;;;2.40;;
7523;SDS011;3803;51.666;7.630;2023-03-14T01:11:33;5.10;;;2.17;;
7523;SDS011;3803;51.666;7.630;2023-03-14T01:11:55;2.35;;;1.83;;
7523;SDS011;3803;51.666;7.630;2023-03-14T01:12:15;5.22;;;2.10;;
7523;SDS011;3803;51.666;7.630;2023-03-14T01:12:36;4.90;;;1.90;;
7523;SDS011;3803;51.666;7.630;2023-03-14T01:12:57;5.10;;;1.90;;
7523;SDS011;3803;51.666;7.630;2023-03-14T01:13:17;4.20;;;1.67;;
7523;SDS011;3803;51.666;7.630;2023-03-14T01:13:38;5.03;;;2.10;;
7523;SDS011;3803;51.666;7.630;2023-03-14T01:13:59;5.97;;;2.10;;
7523;SDS011;3803;51.666;7.630;2023-03-14T01:14:22;5.82;;;2.28;;
7523;SDS011;3803;51.666;7.630;2023-03-14T01:14:43;5.63;;;2.30;;
7523;SDS011;3803;51.666;7.630;2023-03-14T01:15:03;4.57;;;2.30;;
7523;SDS011;3803;51.666;7.630;2023-03-14T01:15:26;3.50;;;2.10;;
7523;SDS011;3803;51.666;7.630;2023-03-14T01:15:51;3.45;;;2.00;;
7523;SDS011;3803;51.666;7.630;2023-03-14T01:16:12;3.80;;;1.95;;
7523;SDS011;3803;51.666;7.630;2023-03-14T01:16:35;3.20;;;1.92;;
7523;SDS011;3803;51.666;7.630;2023-03-14T01:16:56;2.35;;;1.75;;
7523;SDS011;3803;51.666;7.630;2023-03-14T01:17:21;3.30;;;1.95;;
7523;SDS011;3803;51.666;7.630;2023-03-14T01:17:43;4.03;;;2.00;;
7523;SDS011;3803;51.666;7.630;2023-03-14T01:18:04;4.30;;;2.00;;
7523;SDS011;3803;51.666;7.630;2023-03-14T01:18:25;4.68;;;2.10;;
7523;SDS011;3803;51.666;7.630;2023-03-14T01:18:45;4.93;;;2.13;;
7523;SDS011;3803;51.666;7.630;2023-03-14T01:19:07;5.80;;;2.20;;
7523;SDS011;3803;51.666;7.630;2023-03-14T01:19:27;5.95;;;2.10;;
7523;SDS011;3803;51.666;7.630;2023-03-14T01:19:48;5.17;;;2.10;;
7523;SDS011;3803;51.666;7.630;2023-03-14T01:20:10;4.37;;;2.00;;
7523;SDS011;3803;51.666;7.630;2023-03-14T01:20:32;3.85;;;2.00;;
7523;SDS011;3803;51.666;7.630;2023-03-14T01:20:53;3.73;;;2.00;;
7523;SDS011;3803;51.666;7.630;2023-03-14T01:21:16;2.78;;;2.00;;
7523;SDS011;3803;51.666;7.630;2023-03-14T01:21:42;4.28;;;2.08;;
7523;SDS011;3803;51.666;7.630;2023-03-14T01:22:03;6.35;;;2.30;;
7523;SDS011;3803;51.666;7.630;2023-03-14T01:22:24;6.50;;;2.40;;
7523;SDS011;3803;51.666;7.630;2023-03-14T01:22:45;5.55;;;2.40;;
7523;SDS011;3803;51.666;7.630;2023-03-14T01:23:05;3.30;;;2.10;;
7523;SDS011;3803;51.666;7.630;2023-03-14T01:23:26;4.75;;;2.20;;
7523;SDS011;3803;51.666;7.630;2023-03-14T01:23:47;3.73;;;1.87;;
7523;SDS011;3803;51.666;7.630;2023-03-14T01:24:10;4.80;;;1.90;;
7523;SDS011;3803;51.666;7.630;2023-03-14T01:24:31;2.97;;;1.60;;
7523;SDS011;3803;51.666;7.630;2023-03-14T01:24:51;2.83;;;1.67;;
7523;SDS011;3803;51.666;7.630;2023-03-14T01:25:13;2.65;;;1.65;;
7523;SDS011;3803;51.666;7.630;2023-03-14T01:25:40;3.38;;;2.00;;
7523;SDS011;3803;51.666;7.630;2023-03-14T01:26:02;3.60;;;2.20;;
7523;SDS011;3803;51.666;7.630;2023-03-14T01:26:40;5.30;;;2.60;;
7523;SDS011;3803;51.666;7.630;2023-03-14T01:27:02;5.72;;;3.28;;
7523;SDS011;3803;51.666;7.630;2023-03-14T01:27:23;4.80;;;3.30;;
7523;SDS011;3803;51.666;7.630;2023-03-14T01:27:43;5.85;;;3.50;;
7523;SDS011;3803;51.666;7.630;2023-03-14T01:28:05;6.78;;;3.60;;
7523;SDS011;3803;51.666;7.630;2023-03-14T01:28:25;7.47;;;3.75;;
7523;SDS011;3803;51.666;7.630;2023-03-14T01:28:46;6.90;;;3.70;;
7523;SDS011;3803;51.666;7.630;2023-03-14T01:29:08;8.77;;;4.00;;
7523;SDS011;3803;51.666;7.630;2023-03-14T01:29:31;8.52;;;3.90;;
7523;SDS011;3803;51.666;7.630;2023-03-14T01:29:52;8.30;;;3.67;;
7523;SDS011;3803;51.666;7.630;2023-03-14T01:30:13;6.20;;;3.07;;
7523;SDS011;3803;51.666;7.630;2023-03-14T01:30:46;4.25;;;2.30;;
7523;SDS011;3803;51.666;7.630;2023-03-14T01:31:08;1.20;;;1.20;;
7523;SDS011;3803;51.666;7.630;2023-03-14T01:31:30;1.10;;;1.10;;
7523;SDS011;3803;51.666;7.630;2023-03-14T01:31:51;1.10;;;1.10;;
7523;SDS011;3803;51.666;7.630;2023-03-14T01:32:12;1.10;;;1.10;;
7523;SDS011;3803;51.666;7.630;2023-03-14T01:32:33;1.50;;;1.40;;
7523;SDS011;3803;51.666;7.630;2023-03-14T01:32:53;1.70;;;1.60;;
7523;SDS011;3803;51.666;7.630;2023-03-14T01:33:14;1.70;;;1.60;;
7523;SDS011;3803;51.666;7.630;2023-03-14T01:33:38;1.40;;;1.30;;
7523;SDS011;3803;51.666;7.630;2023-03-14T01:33:59;0.95;;;0.95;;
7523;SDS011;3803;51.666;7.630;2023-03-14T01:34:20;0.90;;;0.90;;
7523;SDS011;3803;51.666;7.630;2023-03-14T01:34:42;0.90;;;0.90;;
7523;SDS011;3803;51.666;7.630;2023-03-14T01:35:03;0.90;;;0.90;;
7523;SDS011;3803;51.666;7.630;2023-03-14T01:35:25;0.90;;;0.90;;
7523;SDS011;3803;51.666;7.630;2023-03-14T01:35:45;0.90;;;0.90;;
7523;SDS011;3803;51.666;7.630;2023-03-14T01:36:10;0.80;;;0.80;;
7523;SDS011;3803;51.666;7.630;2023-03-14T01:36:31;0.80;;;0.80;;
7523;SDS011;3803;51.666;7.630;2023-03-14T01:36:55;0.80;;;0.80;;
7523;SDS011;3803;51.666;7.630;2023-03-14T01:37:16;0.80;;;0.80;;
7523;SDS011;3803;51.666;7.630;2023-03-14T01:37:36;0.80;;;0.80;;
7523;SDS011;3803;51.666;7.630;2023-03-14T01:37:58;0.77;;;0.77;;
7523;SDS011;3803;51.666;7.630;2023-03-14T01:38:19;0.80;;;0.80;;
7523;SDS011;3803;51.666;7.630;2023-03-14T01:38:40;0.80;;;0.80;;
7523;SDS011;3803;51.666;7.630;2023-03-14T01:39:03;0.80;;;0.80;;
7523;SDS011;3803;51.666;7.630;2023-03-14T01:39:26;0.80;;;0.80;;
7523;SDS011;3803;51.666;7.630;2023-03-14T01:39:47;0.80;;;0.80;;
7523;SDS011;3803;51.666;7.630;2023-03-14T01:40:09;0.80;;;0.80;;
7523;SDS011;3803;51.666;7.630;2023-03-14T01:40:31;0.70;;;0.70;;
7523;SDS011;3803;51.666;7.630;2023-03-14T01:40:52;0.75;;;0.75;;
7523;SDS011;3803;51.666;7.630;2023-03-14T01:41:14;0.80;;;0.80;;
7523;SDS011;3803;51.666;7.630;2023-03-14T01:41:38;0.80;;;0.80;;
7523;SDS011;3803;51.666;7.630;2023-03-14T01:42:00;0.80;;;0.80;;
7523;SDS011;3803;51.666;7.630;2023-03-14T01:42:21;0.80;;;0.80;;
7523;SDS011;3803;51.666;7.630;2023-03-14T01:42:46;0.70;;;0.70;;
7523;SDS011;3803;51.666;7.630;2023-03-14T01:43:13;0.70;;;0.70;;
7523;SDS011;3803;51.666;7.630;2023-03-14T01:43:36;0.70;;;0.70;;
7523;SDS011;3803;51.666;7.630;2023-03-14T01:43:57;0.70;;;0.70;;
7523;SDS011;3803;51.666;7.630;2023-03-14T01:44:18;0.70;;;0.70;;
7523;SDS011;3803;51.666;7.630;2023-03-14T01:44:57;0.70;;;0.70;;
7523;SDS011;3803;51.666;7.630;2023-03-14T01:46:44;0.70;;;0.70;;
7523;SDS011;3803;51.666;7.630;2023-03-14T01:47:07;0.70;;;0.70;;
7523;SDS011;3803;51.666;7.630;2023-03-14T01:47:28;0.68;;;0.68;;
7523;SDS011;3803;51.666;7.630;2023-03-14T01:47:50;0.60;;;0.60;;
7523;SDS011;3803;51.666;7.630;2023-03-14T01:48:10;0.70;;;0.70;;
7523;SDS011;3803;51.666;7.630;2023-03-14T01:49:30;0.60;;;0.60;;
7523;SDS011;3803;51.666;7.630;2023-03-14T01:50:06;0.60;;;0.60;;
7523;SDS011;3803;51.666;7.630;2023-03-14T01:50:31;0.60;;;0.60;;
7523;SDS011;3803;51.666;7.630;2023-03-14T01:50:52;0.60;;;0.60;;
7523;SDS011;3803;51.666;7.630;2023-03-14T01:51:15;0.60;;;0.60;;
7523;SDS011;3803;51.666;7.630;2023-03-14T01:51:42;0.90;;;0.90;;
7523;SDS011;3803;51.666;7.630;2023-03-14T01:52:07;0.90;;;0.90;;
7523;SDS011;3803;51.666;7.630;2023-03-14T01:52:35;0.60;;;0.60;;
7523;SDS011;3803;51.666;7.630;2023-03-14T01:53:02;0.68;;;0.68;;
7523;SDS011;3803;51.666;7.630;2023-03-14T01:53:23;0.70;;;0.70;;
7523;SDS011;3803;51.666;7.630;2023-03-14T01:53:54;0.70;;;0.70;;
7523;SDS011;3803;51.666;7.630;2023-03-14T01:55:23;0.60;;;0.60;;
7523;SDS011;3803;51.666;7.630;2023-03-14T01:55:45;0.60;;;0.60;;
7523;SDS011;3803;51.666;7.630;2023-03-14T01:56:06;0.60;;;0.60;;
7523;SDS011;3803;51.666;7.630;2023-03-14T01:56:30;0.60;;;0.60;;
7523;SDS011;3803;51.666;7.630;2023-03-14T01:56:53;0.60;;;0.60;;
7523;SDS011;3803;51.666;7.630;2023-03-14T01:57:21;0.60;;;0.60;;
7523;SDS011;3803;51.666;7.630;2023-03-14T01:57:49;0.60;;;0.60;;
7523;SDS011;3803;51.666;7.630;2023-03-14T01:58:14;0.60;;;0.60;;
7523;SDS011;3803;51.666;7.630;2023-03-14T01:58:37;0.68;;;0.68;;
7523;SDS011;3803;51.666;7.630;2023-03-14T01:59:01;0.70;;;0.70;;
7523;SDS011;3803;51.666;7.630;2023-03-14T01:59:26;0.70;;;0.70;;
7523;SDS011;3803;51.666;7.630;2023-03-14T02:00:07;0.60;;;0.60;;
7523;SDS011;3803;51.666;7.630;2023-03-14T02:00:34;0.60;;;0.60;;
7523;SDS011;3803;51.666;7.630;2023-03-14T02:00:56;0.60;;;0.60;;
7523;SDS011;3803;51.666;7.630;2023-03-14T02:01:19;0.60;;;0.60;;
7523;SDS011;3803;51.666;7.630;2023-03-14T02:01:45;0.60;;;0.60;;
7523;SDS011;3803;51.666;7.630;2023-03-14T02:02:09;0.60;;;0.60;;
7523;SDS011;3803;51.666;7.630;2023-03-14T02:02:32;0.60;;;0.60;;
7523;SDS011;3803;51.666;7.630;2023-03-14T02:02:58;0.60;;;0.60;;
7523;SDS011;3803;51.666;7.630;2023-03-14T02:03:22;0.60;;;0.60;;
7523;SDS011;3803;51.666;7.630;2023-03-14T02:03:50;0.60;;;0.60;;
7523;SDS011;3803;51.666;7.630;2023-03-14T02:04:15;0.60;;;0.60;;
7523;SDS011;3803;51.666;7.630;2023-03-14T02:04:39;0.60;;;0.60;;
7523;SDS011;3803;51.666;7.630;2023-03-14T02:05:00;0.60;;;0.60;;
7523;SDS011;3803;51.666;7.630;2023-03-14T02:05:28;0.60;;;0.60;;
7523;SDS011;3803;51.666;7.630;2023-03-14T02:05:56;0.60;;;0.60;;
7523;SDS011;3803;51.666;7.630;2023-03-14T02:06:23;0.60;;;0.60;;
7523;SDS011;3803;51.666;7.630;2023-03-14T02:06:49;0.60;;;0.60;;
7523;SDS011;3803;51.666;7.630;2023-03-14T02:07:15;0.60;;;0.60;;
7523;SDS011;3803;51.666;7.630;2023-03-14T02:07:52;0.60;;;0.60;;
7523;SDS011;3803;51.666;7.630;2023-03-14T02:08:19;0.60;;;0.60;;
7523;SDS011;3803;51.666;7.630;2023-03-14T02:08:47;0.60;;;0.60;;
7523;SDS011;3803;51.666;7.630;2023-03-14T02:09:11;0.60;;;0.60;;
7523;SDS011;3803;51.666;7.630;2023-03-14T02:09:32;0.60;;;0.60;;
7523;SDS011;3803;51.666;7.630;2023-03-14T02:09:54;0.60;;;0.60;;
7523;SDS011;3803;51.666;7.630;2023-03-14T02:10:20;0.60;;;0.60;;
7523;SDS011;3803;51.666;7.630;2023-03-14T02:10:44;0.60;;;0.60;;
7523;SDS011;3803;51.666;7.630;2023-03-14T02:11:07;0.60;;;0.60;;
7523;SDS011;3803;51.666;7.630;2023-03-14T02:11:51;0.60;;;0.57;;
7523;SDS011;3803;51.666;7.630;2023-03-14T02:12:37;0.60;;;0.60;;
7523;SDS011;3803;51.666;7.630;2023-03-14T02:13:18;0.60;;;0.60;;
7523;SDS011;3803;51.666;7.630;2023-03-14T02:13:51;0.60;;;0.60;;
7523;SDS011;3803;51.666;7.630;2023-03-14T02:14:22;0.60;;;0.50;;
7523;SDS011;3803;51.666;7.630;2023-03-14T02:15:08;0.60;;;0.60;;
7523;SDS011;3803;51.666;7.630;2023-03-14T02:15:49;0.60;;;0.60;;
7523;SDS011;3803;51.666;7.630;2023-03-14T02:16:45;0.60;;;0.60;;
7523;SDS011;3803;51.666;7.630;2023-03-14T02:17:18;0.60;;;0.60;;
7523;SDS011;3803;51.666;7.630;2023-03-14T02:17:58;0.60;;;0.60;;
7523;SDS011;3803;51.666;7.630;2023-03-14T02:18:54;0.60;;;0.60;;
7523;SDS011;3803;51.666;7.630;2023-03-14T02:19:14;0.60;;;0.60;;
7523;SDS011;3803;51.666;7.630;2023-03-14T02:20:58;0.60;;;0.50;;
7523;SDS011;3803;51.666;7.630;2023-03-14T02:21:59;0.60;;;0.60;;
7523;SDS011;3803;51.666;7.630;2023-03-14T02:22:31;0.60;;;0.60;;
7523;SDS011;3803;51.666;7.630;2023-03-14T02:22:57;0.60;;;0.50;;
7523;SDS011;3803;51.666;7.630;2023-03-14T02:23:25;0.60;;;0.60;;
7523;SDS011;3803;51.666;7.630;2023-03-14T02:24:15;0.60;;;0.60;;
7523;SDS011;3803;51.666;7.630;2023-03-14T02:25:12;0.60;;;0.60;;
7523;SDS011;3803;51.666;7.630;2023-03-14T02:25:38;0.60;;;0.60;;
7523;SDS011;3803;51.666;7.630;2023-03-14T02:26:08;0.60;;;0.60;;
7523;SDS011;3803;51.666;7.630;2023-03-14T02:27:06;0.60;;;0.60;;
7523;SDS011;3803;51.666;7.630;2023-03-14T02:27:27;0.60;;;0.60;;
7523;SDS011;3803;51.666;7.630;2023-03-14T02:27:48;0.60;;;0.60;;
7523;SDS011;3803;51.666;7.630;2023-03-14T02:28:09;0.60;;;0.60;;
7523;SDS011;3803;51.666;7.630;2023-03-14T02:28:31;0.60;;;0.60;;
7523;SDS011;3803;51.666;7.630;2023-03-14T02:28:54;0.60;;;0.60;;
7523;SDS011;3803;51.666;7.630;2023-03-14T02:29:15;0.60;;;0.60;;
7523;SDS011;3803;51.666;7.630;2023-03-14T02:29:37;0.60;;;0.50;;
7523;SDS011;3803;51.666;7.630;2023-03-14T02:30:06;0.60;;;0.50;;
7523;SDS011;3803;51.666;7.630;2023-03-14T02:30:31;0.60;;;0.50;;
7523;SDS011;3803;51.666;7.630;2023-03-14T02:31:05;0.60;;;0.50;;
7523;SDS011;3803;51.666;7.630;2023-03-14T02:31:28;0.60;;;0.60;;
7523;SDS011;3803;51.666;7.630;2023-03-14T02:31:48;0.60;;;0.60;;
7523;SDS011;3803;51.666;7.630;2023-03-14T02:32:10;0.60;;;0.50;;
7523;SDS011;3803;51.666;7.630;2023-03-14T02:32:34;0.60;;;0.60;;
7523;SDS011;3803;51.666;7.630;2023-03-14T02:33:04;0.60;;;0.60;;